createdAt,value
2022-12-24T00:02:24.675Z,22.97
2022-12-24T00:05:12.824Z,26.93
2022-12-24T00:07:59.286Z,26.80
2022-12-24T00:10:45.479Z,34.93
2022-12-24T00:13:31.632Z,22.23
2022-12-24T00:16:17.964Z,21.27
2022-12-24T00:19:04.631Z,20.50
2022-12-24T00:21:52.215Z,21.70
2022-12-24T00:24:38.636Z,18.80
2022-12-24T00:27:24.861Z,23.87
2022-12-24T00:30:11.410Z,22.27
2022-12-24T00:32:57.758Z,22.07
2022-12-24T00:35:43.979Z,27.30
2022-12-24T00:38:31.482Z,19.30
2022-12-24T00:41:29.216Z,11.60
2022-12-24T00:44:16.155Z,15.00
2022-12-24T00:47:05.503Z,13.50
2022-12-24T00:49:56.449Z,15.33
2022-12-24T00:52:42.723Z,14.77
2022-12-24T00:55:30.887Z,14.73
2022-12-24T00:58:17.393Z,20.13
2022-12-24T01:01:04.057Z,9.13
2022-12-24T01:03:51.362Z,10.93
2022-12-24T01:06:36.932Z,20.23
2022-12-24T01:09:23.368Z,14.00
2022-12-24T01:12:11.030Z,13.67
2022-12-24T01:14:57.430Z,13.97
2022-12-24T01:20:31.656Z,16.33
2022-12-24T01:23:18.416Z,12.20
2022-12-24T01:26:05.537Z,12.00
2022-12-24T01:28:52.175Z,10.60
2022-12-24T01:31:39.065Z,14.70
2022-12-24T01:34:25.383Z,18.00
2022-12-24T01:37:13.335Z,15.33
2022-12-24T01:40:13.820Z,15.80
2022-12-24T01:43:17.248Z,11.60
2022-12-24T01:46:05.423Z,9.40
2022-12-24T01:48:54.191Z,23.33
2022-12-24T01:51:43.736Z,14.13
2022-12-24T01:54:32.877Z,17.40
2022-12-24T01:57:21.913Z,16.53
2022-12-24T02:00:09.947Z,16.93
2022-12-24T02:02:57.113Z,13.70
2022-12-24T02:05:47.617Z,19.77
2022-12-24T02:08:41.017Z,13.43
2022-12-24T02:11:28.993Z,11.47
2022-12-24T02:14:15.757Z,18.53
2022-12-24T02:17:05.487Z,14.73
2022-12-24T02:20:09.432Z,14.90
2022-12-24T02:23:05.040Z,12.70
2022-12-24T02:26:09.849Z,13.17
2022-12-24T02:29:12.727Z,13.70
2022-12-24T02:32:02.388Z,12.53
2022-12-24T02:34:51.472Z,15.27
2022-12-24T02:37:39.208Z,11.23
2022-12-24T02:40:28.653Z,10.90
2022-12-24T02:43:17.706Z,12.00
2022-12-24T02:46:06.884Z,9.07
2022-12-24T02:48:54.943Z,11.50
2022-12-24T02:51:41.253Z,14.03
2022-12-24T02:54:27.656Z,9.77
2022-12-24T02:57:18.940Z,13.73
2022-12-24T03:00:06.378Z,8.87
2022-12-24T03:02:59.406Z,12.47
2022-12-24T03:05:49.942Z,12.47
2022-12-24T03:08:42.576Z,15.40
2022-12-24T03:11:28.751Z,13.43
2022-12-24T03:14:15.913Z,10.20
2022-12-24T03:17:03.064Z,11.83
2022-12-24T03:19:49.859Z,13.83
2022-12-24T03:22:37.890Z,15.37
2022-12-24T03:25:25.615Z,12.70
2022-12-24T03:28:13.712Z,7.53
2022-12-24T03:31:02.203Z,8.93
2022-12-24T03:33:48.712Z,14.20
2022-12-24T03:36:34.861Z,9.53
2022-12-24T03:39:22.551Z,15.50
2022-12-24T03:42:09.011Z,11.17
2022-12-24T03:44:55.621Z,12.87
2022-12-24T03:47:41.781Z,14.47
2022-12-24T03:50:28.422Z,9.40
2022-12-24T03:53:14.469Z,11.90
2022-12-24T03:56:02.254Z,11.20
2022-12-24T03:58:49.164Z,17.77
2022-12-24T04:01:35.709Z,11.47
2022-12-24T04:04:21.915Z,9.00
2022-12-24T04:07:08.385Z,14.50
2022-12-24T04:09:54.965Z,9.43
2022-12-24T04:12:42.860Z,15.73
2022-12-24T04:15:29.515Z,17.97
2022-12-24T04:18:16.360Z,14.57
2022-12-24T04:21:03.109Z,12.73
2022-12-24T04:23:49.611Z,12.57
2022-12-24T04:26:36.108Z,10.60
2022-12-24T04:29:23.761Z,14.67
2022-12-24T04:32:11.217Z,11.87
2022-12-24T04:34:58.126Z,9.20
2022-12-24T04:37:44.464Z,9.40
2022-12-24T04:40:30.829Z,10.80
2022-12-24T04:43:17.125Z,10.60
2022-12-24T04:46:08.812Z,12.53
2022-12-24T04:48:55.641Z,22.23
2022-12-24T04:51:42.062Z,15.27
2022-12-24T04:54:28.356Z,8.33
2022-12-24T04:57:14.904Z,12.67
2022-12-24T05:00:01.138Z,11.13
2022-12-24T05:02:49.410Z,9.80
2022-12-24T05:05:35.737Z,18.23
2022-12-24T05:08:22.538Z,8.60
2022-12-24T05:11:08.982Z,6.87
2022-12-24T05:13:55.439Z,8.23
2022-12-24T05:16:41.695Z,6.47
2022-12-24T05:19:29.377Z,4.70
2022-12-24T05:22:33.111Z,6.30
2022-12-24T05:25:37.098Z,7.43
2022-12-24T05:28:23.584Z,4.63
2022-12-24T05:31:09.857Z,7.97
2022-12-24T05:33:57.033Z,4.43
2022-12-24T05:36:45.750Z,8.47
2022-12-24T05:39:32.345Z,8.73
2022-12-24T05:42:18.595Z,6.03
2022-12-24T05:45:05.344Z,8.67
2022-12-24T05:47:51.612Z,10.63
2022-12-24T05:50:39.982Z,12.87
2022-12-24T05:53:27.521Z,16.43
2022-12-24T05:56:14.799Z,13.83
2022-12-24T05:59:01.452Z,15.43
2022-12-24T06:01:48.444Z,24.00
2022-12-24T06:04:34.775Z,17.10
2022-12-24T06:07:21.521Z,16.37
2022-12-24T06:10:10.139Z,20.13
2022-12-24T06:12:57.089Z,18.87
2022-12-24T06:15:43.613Z,19.73
2022-12-24T06:18:30.385Z,13.07
2022-12-24T06:21:17.342Z,12.70
2022-12-24T06:24:03.594Z,11.90
2022-12-24T06:26:51.186Z,10.30
2022-12-24T06:29:37.902Z,17.53
2022-12-24T06:32:24.410Z,12.10
2022-12-24T06:35:10.559Z,9.63
2022-12-24T06:37:56.587Z,13.27
2022-12-24T06:40:43.530Z,11.03
2022-12-24T06:43:31.347Z,7.40
2022-12-24T06:46:18.680Z,13.53
2022-12-24T06:49:05.149Z,11.10
2022-12-24T06:51:51.393Z,6.67
2022-12-24T06:54:37.684Z,14.60
2022-12-24T06:57:23.800Z,13.40
2022-12-24T07:00:12.688Z,18.77
2022-12-24T07:02:59.467Z,16.77
2022-12-24T07:05:46.238Z,18.23
2022-12-24T07:08:33.729Z,14.07
2022-12-24T07:11:20.021Z,13.90
2022-12-24T07:14:06.081Z,15.97
2022-12-24T07:16:58.896Z,19.63
2022-12-24T07:19:45.504Z,23.60
2022-12-24T07:22:32.128Z,14.73
2022-12-24T07:25:18.520Z,17.70
2022-12-24T07:28:04.774Z,17.53
2022-12-24T07:30:51.017Z,17.30
2022-12-24T07:33:38.888Z,17.33
2022-12-24T07:36:25.392Z,13.63
2022-12-24T07:39:11.958Z,17.73
2022-12-24T07:41:58.134Z,18.23
2022-12-24T07:44:44.273Z,27.87
2022-12-24T07:47:30.807Z,24.47
2022-12-24T07:50:18.566Z,25.30
2022-12-24T07:53:05.012Z,17.50
2022-12-24T07:55:51.086Z,22.43
2022-12-24T07:58:37.165Z,21.10
2022-12-24T08:01:23.419Z,21.83
2022-12-24T08:04:10.213Z,26.33
2022-12-24T08:06:57.968Z,19.00
2022-12-24T08:09:46.084Z,25.13
2022-12-24T08:12:32.532Z,25.93
2022-12-24T08:15:18.834Z,27.33
2022-12-24T08:18:05.220Z,20.57
2022-12-24T08:20:51.612Z,22.17
2022-12-24T08:23:39.248Z,27.20
2022-12-24T08:26:25.596Z,23.27
2022-12-24T08:29:12.155Z,19.90
2022-12-24T08:31:58.370Z,25.60
2022-12-24T08:34:45.065Z,23.70
2022-12-24T08:37:31.291Z,22.07
2022-12-24T08:40:18.995Z,19.83
2022-12-24T08:43:05.423Z,18.97
2022-12-24T08:45:51.676Z,22.10
2022-12-24T08:48:38.393Z,31.70
2022-12-24T08:51:24.435Z,32.03
2022-12-24T08:54:10.932Z,26.70
2022-12-24T08:56:58.490Z,24.37
2022-12-24T08:59:44.888Z,24.60
2022-12-24T09:02:31.795Z,19.53
2022-12-24T09:05:18.779Z,21.97
2022-12-24T09:08:05.609Z,27.80
2022-12-24T09:10:52.173Z,41.03
2022-12-24T09:13:39.811Z,26.00
2022-12-24T09:16:26.444Z,26.60
2022-12-24T09:19:13.071Z,26.50
2022-12-24T09:21:59.272Z,29.27
2022-12-24T09:24:45.657Z,33.23
2022-12-24T09:27:31.980Z,24.27
2022-12-24T09:30:19.643Z,27.30
2022-12-24T09:33:06.137Z,25.60
2022-12-24T09:35:52.654Z,27.97
2022-12-24T09:38:40.242Z,24.80
2022-12-24T09:41:32.010Z,23.17
2022-12-24T09:44:24.941Z,21.83
2022-12-24T09:47:17.117Z,20.23
2022-12-24T09:50:04.713Z,14.37
2022-12-24T09:52:51.600Z,19.00
2022-12-24T09:55:41.734Z,19.10
2022-12-24T09:58:32.562Z,26.07
2022-12-24T10:01:19.608Z,22.67
2022-12-24T10:04:11.115Z,63.47
2022-12-24T10:07:00.238Z,68.83
2022-12-24T10:09:50.396Z,51.80
2022-12-24T10:12:49.151Z,42.40
2022-12-24T10:15:38.839Z,33.27
2022-12-24T10:18:28.679Z,27.47
2022-12-24T10:21:17.410Z,46.03
2022-12-24T10:24:08.011Z,62.63
2022-12-24T10:26:57.129Z,56.53
2022-12-24T10:29:44.650Z,49.90
2022-12-24T10:32:32.950Z,23.73
2022-12-24T10:35:21.771Z,19.00
2022-12-24T10:38:10.343Z,19.50
2022-12-24T10:40:57.583Z,18.93
2022-12-24T10:43:45.034Z,16.37
2022-12-24T10:46:34.246Z,18.13
2022-12-24T10:49:21.329Z,19.60
2022-12-24T10:52:11.798Z,21.87
2022-12-24T10:55:12.317Z,35.10
2022-12-24T10:58:01.196Z,50.43
2022-12-24T11:00:51.013Z,46.23
2022-12-24T11:03:38.269Z,34.77
2022-12-24T11:06:24.649Z,44.63
2022-12-24T11:09:14.530Z,39.00
2022-12-24T11:12:08.655Z,35.30
2022-12-24T11:15:01.524Z,48.20
2022-12-24T11:17:54.112Z,40.77
2022-12-24T11:20:40.807Z,45.60
2022-12-24T11:23:27.187Z,60.53
2022-12-24T11:26:13.259Z,57.23
2022-12-24T11:29:18.243Z,48.73
2022-12-24T11:32:12.169Z,77.93
2022-12-24T11:35:06.938Z,60.83
2022-12-24T11:38:10.695Z,63.73
2022-12-24T11:41:08.201Z,59.33
2022-12-24T11:44:01.485Z,46.33
2022-12-24T11:46:52.499Z,99.60
2022-12-24T11:49:38.970Z,60.53
2022-12-24T11:52:26.387Z,53.03
2022-12-24T11:55:19.166Z,44.03
2022-12-24T11:58:07.857Z,57.07
2022-12-24T12:00:58.066Z,32.30
2022-12-24T12:03:48.217Z,33.73
2022-12-24T12:06:38.646Z,39.37
2022-12-24T12:09:27.017Z,42.57
2022-12-24T12:12:14.702Z,32.27
2022-12-24T12:15:02.111Z,29.93
2022-12-24T12:17:50.415Z,33.47
2022-12-24T12:20:41.092Z,30.30
2022-12-24T12:23:30.708Z,41.13
2022-12-24T12:26:21.234Z,217.83
2022-12-24T12:29:14.603Z,130.27
2022-12-24T12:32:03.743Z,30.17
2022-12-24T12:34:56.982Z,24.67
2022-12-24T12:37:46.622Z,42.87
2022-12-24T12:40:55.363Z,29.77
2022-12-24T12:43:57.134Z,31.87
2022-12-24T12:46:49.110Z,34.50
2022-12-24T12:49:42.998Z,25.60
2022-12-24T12:52:37.066Z,26.03
2022-12-24T12:55:29.273Z,31.03
2022-12-24T12:58:18.964Z,46.63
2022-12-24T13:01:09.190Z,35.20
2022-12-24T13:04:14.474Z,42.03
2022-12-24T13:07:16.846Z,41.60
2022-12-24T13:10:10.738Z,45.60
2022-12-24T13:13:20.188Z,47.73
2022-12-24T13:16:19.570Z,42.10
2022-12-24T13:19:15.474Z,43.20
2022-12-24T13:22:02.417Z,43.13
2022-12-24T13:24:52.101Z,38.30
2022-12-24T13:27:39.035Z,48.33
2022-12-24T13:30:36.653Z,54.90
2022-12-24T13:33:37.657Z,55.67
2022-12-24T13:36:26.096Z,55.93
2022-12-24T13:39:19.802Z,71.23
2022-12-24T13:42:05.955Z,52.23
2022-12-24T13:45:12.225Z,64.70
2022-12-24T13:47:59.547Z,48.63
2022-12-24T13:50:47.860Z,39.43
2022-12-24T13:53:40.713Z,52.23
2022-12-24T13:56:28.096Z,43.87
2022-12-24T13:59:24.438Z,37.73
2022-12-24T14:02:19.135Z,34.57
2022-12-24T14:05:08.682Z,43.73
2022-12-24T14:07:56.283Z,31.20
2022-12-24T14:10:45.195Z,29.50
2022-12-24T14:13:51.554Z,32.97
2022-12-24T14:16:50.255Z,22.87
2022-12-24T14:19:42.255Z,25.27
2022-12-24T14:22:30.133Z,27.77
2022-12-24T14:25:18.559Z,36.97
2022-12-24T14:28:07.590Z,39.23
2022-12-24T14:31:01.302Z,51.00
2022-12-24T14:33:47.923Z,54.23
2022-12-24T14:36:34.545Z,47.00
2022-12-24T14:39:23.497Z,24.20
2022-12-24T14:42:18.073Z,29.47
2022-12-24T14:45:10.023Z,36.33
2022-12-24T14:48:00.259Z,37.47
2022-12-24T14:50:56.399Z,50.53
2022-12-24T14:53:51.340Z,49.00
2022-12-24T14:56:37.737Z,53.77
2022-12-24T14:59:24.983Z,88.13
2022-12-24T15:02:32.116Z,95.07
2022-12-24T15:05:19.839Z,105.00
2022-12-24T15:08:10.134Z,81.27
2022-12-24T15:10:59.705Z,50.30
2022-12-24T15:13:49.275Z,55.30
2022-12-24T15:16:37.616Z,75.73
2022-12-24T15:19:26.764Z,92.93
2022-12-24T15:22:18.732Z,85.73
2022-12-24T15:25:05.294Z,57.03
2022-12-24T15:27:51.569Z,53.70
2022-12-24T15:30:38.065Z,74.10
2022-12-24T15:33:24.224Z,48.87
2022-12-24T15:36:12.603Z,49.10
2022-12-24T15:38:59.755Z,69.53
2022-12-24T15:42:00.196Z,92.10
2022-12-24T15:44:50.841Z,121.00
2022-12-24T15:47:38.924Z,142.13
2022-12-24T15:50:28.028Z,85.20
2022-12-24T15:53:18.841Z,45.97
2022-12-24T15:56:09.191Z,43.60
2022-12-24T15:59:11.914Z,44.83
2022-12-24T16:01:58.923Z,51.40
2022-12-24T16:04:45.669Z,39.60
2022-12-24T16:07:51.788Z,46.90
2022-12-24T16:10:41.211Z,41.83
2022-12-24T16:13:30.310Z,51.47
2022-12-24T16:16:17.407Z,43.00
2022-12-24T16:19:05.940Z,32.47
2022-12-24T16:21:53.523Z,36.23
2022-12-24T16:24:40.230Z,42.20
2022-12-24T16:27:28.097Z,55.37
2022-12-24T16:30:14.934Z,41.43
2022-12-24T16:33:01.073Z,35.90
2022-12-24T16:35:48.038Z,39.93
2022-12-24T16:38:54.788Z,43.37
2022-12-24T16:41:55.016Z,41.43
2022-12-24T16:44:43.445Z,45.50
2022-12-24T16:47:35.704Z,31.10
2022-12-24T16:50:25.052Z,27.50
2022-12-24T16:53:17.532Z,34.17
2022-12-24T16:56:04.706Z,24.17
2022-12-24T16:58:50.801Z,25.07
2022-12-24T17:01:38.553Z,24.27
2022-12-24T17:04:25.073Z,16.10
2022-12-24T17:07:12.048Z,14.80
2022-12-24T17:09:58.465Z,15.87
2022-12-24T17:12:44.585Z,24.13
2022-12-24T17:15:30.939Z,15.67
2022-12-24T17:18:18.862Z,17.77
2022-12-24T17:21:06.972Z,15.87
2022-12-24T17:23:53.205Z,20.13
2022-12-24T17:26:39.806Z,19.07
2022-12-24T17:29:26.059Z,22.13
2022-12-24T17:32:12.952Z,17.70
2022-12-24T17:35:02.431Z,15.83
2022-12-24T17:37:48.794Z,8.43
2022-12-24T17:40:35.595Z,13.93
2022-12-24T17:43:22.146Z,11.73
2022-12-24T17:46:09.255Z,12.37
2022-12-24T17:48:58.978Z,27.30
2022-12-24T17:51:46.885Z,45.30
2022-12-24T17:54:33.475Z,25.00
2022-12-24T17:57:20.127Z,19.40
2022-12-24T18:00:07.294Z,19.37
2022-12-24T18:02:53.722Z,28.63
2022-12-24T18:05:40.829Z,33.17
2022-12-24T18:08:29.116Z,20.13
2022-12-24T18:11:15.524Z,13.73
2022-12-24T18:14:02.419Z,31.60
2022-12-24T18:16:49.424Z,21.67
2022-12-24T18:19:35.973Z,32.13
2022-12-24T18:22:22.151Z,24.40
2022-12-24T18:25:10.989Z,13.43
2022-12-24T18:27:57.704Z,17.40
2022-12-24T18:30:43.982Z,13.43
2022-12-24T18:33:30.229Z,12.60
2022-12-24T18:36:17.036Z,13.47
2022-12-24T18:39:03.546Z,16.00
2022-12-24T18:41:51.482Z,13.97
2022-12-24T18:44:38.128Z,15.83
2022-12-24T18:47:24.463Z,14.20
2022-12-24T18:50:11.213Z,23.50
2022-12-24T18:52:57.406Z,54.63
2022-12-24T18:55:43.795Z,19.63
2022-12-24T18:58:31.453Z,33.97
2022-12-24T19:01:19.215Z,49.00
2022-12-24T19:04:05.568Z,33.50
2022-12-24T19:06:53.530Z,151.97
2022-12-24T19:09:40.367Z,69.80
2022-12-24T19:12:26.444Z,48.67
2022-12-24T19:15:15.137Z,30.83
2022-12-24T19:18:01.507Z,87.33
2022-12-24T19:20:47.721Z,50.80
2022-12-24T19:23:34.270Z,27.40
2022-12-24T19:26:21.252Z,41.13
2022-12-24T19:29:07.626Z,18.87
2022-12-24T19:31:55.659Z,16.70
2022-12-24T19:34:42.498Z,21.43
2022-12-24T19:37:28.999Z,94.13
2022-12-24T19:40:15.246Z,33.73
2022-12-24T19:43:01.394Z,21.10
2022-12-24T19:45:47.920Z,59.17
2022-12-24T19:48:35.875Z,85.30
2022-12-24T19:51:22.945Z,155.53
2022-12-24T19:54:16.724Z,115.80
2022-12-24T19:57:05.161Z,132.27
2022-12-24T19:59:51.459Z,106.83
2022-12-24T20:02:37.816Z,78.07
2022-12-24T20:05:25.839Z,123.90
2022-12-24T20:08:12.465Z,94.40
2022-12-24T20:10:58.682Z,82.00
2022-12-24T20:13:44.977Z,112.77
2022-12-24T20:16:31.439Z,75.40
2022-12-24T20:19:18.035Z,125.23
2022-12-24T20:22:05.859Z,84.10
2022-12-24T20:24:52.101Z,78.07
2022-12-24T20:27:38.742Z,77.90
2022-12-24T20:30:25.486Z,50.10
2022-12-24T20:33:11.755Z,28.27
2022-12-24T20:36:02.371Z,25.33
2022-12-24T20:38:50.402Z,21.87
2022-12-24T20:41:37.007Z,19.93
2022-12-24T20:44:27.768Z,23.60
2022-12-24T20:47:15.029Z,25.13
2022-12-24T20:50:01.533Z,23.33
2022-12-24T20:52:48.010Z,22.47
2022-12-24T20:55:36.715Z,33.70
2022-12-24T20:58:23.187Z,15.93
2022-12-24T21:01:10.244Z,20.53
2022-12-24T21:03:57.736Z,15.57
2022-12-24T21:06:44.174Z,17.07
2022-12-24T21:09:30.427Z,13.40
2022-12-24T21:12:35.613Z,19.80
2022-12-24T21:15:22.374Z,12.03
2022-12-24T21:18:11.884Z,11.27
2022-12-24T21:20:58.614Z,10.67
2022-12-24T21:23:44.789Z,10.70
2022-12-24T21:26:32.004Z,7.27
2022-12-24T21:29:19.971Z,6.53
2022-12-24T21:32:06.422Z,9.27
2022-12-24T21:34:53.037Z,9.20
2022-12-24T21:37:39.465Z,9.93
2022-12-24T21:40:25.965Z,9.30
2022-12-24T21:43:12.112Z,8.43
2022-12-24T21:46:00.054Z,3.77
2022-12-24T21:49:04.318Z,3.37
2022-12-24T21:51:50.456Z,3.23
2022-12-24T21:54:36.549Z,2.13
2022-12-24T21:57:40.429Z,3.80
2022-12-24T22:00:30.701Z,3.93
2022-12-24T22:03:18.986Z,1.93
2022-12-24T22:06:05.509Z,3.47
2022-12-24T22:09:11.306Z,3.77
2022-12-24T22:11:57.831Z,2.23
2022-12-24T22:14:44.274Z,4.37
2022-12-24T22:17:30.790Z,3.10
2022-12-24T22:20:18.646Z,3.80
2022-12-24T22:23:05.221Z,6.40
2022-12-24T22:25:51.381Z,5.30
2022-12-24T22:28:37.991Z,4.00
2022-12-24T22:31:25.013Z,3.90
2022-12-24T22:34:11.156Z,3.97
2022-12-24T22:36:58.838Z,2.40
2022-12-24T22:39:45.429Z,2.50
2022-12-24T22:42:32.827Z,6.90
2022-12-24T22:45:22.428Z,2.07
2022-12-24T22:48:09.814Z,1.87
2022-12-24T22:50:56.040Z,2.33
2022-12-24T22:53:44.198Z,2.80
2022-12-24T22:56:34.212Z,2.90
2022-12-24T22:59:23.572Z,4.07
2022-12-24T23:02:10.367Z,2.53
2022-12-24T23:04:57.536Z,3.60
2022-12-24T23:07:44.341Z,2.27
2022-12-24T23:10:32.264Z,4.83
2022-12-24T23:13:35.822Z,3.23
2022-12-24T23:16:22.213Z,4.87
2022-12-24T23:19:08.985Z,3.73
2022-12-24T23:21:55.079Z,2.57
2022-12-24T23:24:41.711Z,4.03
2022-12-24T23:27:29.255Z,2.90
2022-12-24T23:30:16.094Z,4.73
2022-12-24T23:33:02.494Z,4.17
2022-12-24T23:35:48.928Z,3.70
2022-12-24T23:38:35.716Z,3.40
2022-12-24T23:41:22.551Z,5.40
2022-12-24T23:44:10.328Z,5.47
2022-12-24T23:46:56.792Z,6.13
2022-12-24T23:49:43.035Z,3.23
2022-12-24T23:52:29.588Z,4.27
2022-12-24T23:55:15.773Z,3.93
2022-12-24T23:58:02.602Z,5.03
